sensor_id;sensor_type;location;lat;lon;timestamp;P1;durP1;ratioP1;P2;durP2;ratioP2
15526;SDS011;7865;50.918;4.510;2022-09-09T07:05:20;10.05;;;2.17;;
15526;SDS011;7865;50.918;4.510;2022-09-09T07:10:21;10.40;;;2.73;;
15526;SDS011;7865;50.918;4.510;2022-09-09T07:15:24;9.88;;;2.70;;
15526;SDS011;7865;50.918;4.510;2022-09-09T07:20:26;9.82;;;2.28;;
15526;SDS011;7865;50.918;4.510;2022-09-09T07:25:27;9.50;;;2.72;;
15526;SDS011;7865;50.918;4.510;2022-09-09T07:30:30;14.38;;;2.40;;
15526;SDS011;7865;50.918;4.510;2022-09-09T07:35:32;8.55;;;1.92;;
15526;SDS011;7865;50.918;4.510;2022-09-09T07:40:34;8.65;;;2.05;;
15526;SDS011;7865;50.918;4.510;2022-09-09T07:45:37;9.23;;;2.08;;
15526;SDS011;7865;50.918;4.510;2022-09-09T07:50:39;5.45;;;1.85;;
15526;SDS011;7865;50.918;4.510;2022-09-09T07:55:40;8.70;;;2.15;;
15526;SDS011;7865;50.918;4.510;2022-09-09T08:00:42;8.73;;;2.17;;
15526;SDS011;7865;50.918;4.510;2022-09-09T08:05:44;9.07;;;2.03;;
15526;SDS011;7865;50.918;4.510;2022-09-09T08:10:45;7.25;;;1.90;;
15526;SDS011;7865;50.918;4.510;2022-09-09T08:15:47;8.15;;;2.05;;
15526;SDS011;7865;50.918;4.510;2022-09-09T08:20:51;6.55;;;2.03;;
15526;SDS011;7865;50.918;4.510;2022-09-09T08:25:53;6.03;;;2.47;;
15526;SDS011;7865;50.918;4.510;2022-09-09T08:30:54;3.65;;;1.55;;
15526;SDS011;7865;50.918;4.510;2022-09-09T08:35:56;6.03;;;1.60;;
15526;SDS011;7865;50.918;4.510;2022-09-09T08:41:01;11.50;;;2.30;;
15526;SDS011;7865;50.918;4.510;2022-09-09T08:46:14;5.03;;;1.60;;
15526;SDS011;7865;50.918;4.510;2022-09-09T08:51:21;12.20;;;2.58;;
15526;SDS011;7865;50.918;4.510;2022-09-09T08:56:25;8.25;;;2.40;;
15526;SDS011;7865;50.918;4.510;2022-09-09T09:01:36;6.57;;;1.98;;
15526;SDS011;7865;50.918;4.510;2022-09-09T09:07:09;7.38;;;2.13;;
15526;SDS011;7865;50.918;4.510;2022-09-09T09:12:18;8.27;;;1.80;;
15526;SDS011;7865;50.918;4.510;2022-09-09T09:17:24;5.00;;;1.85;;
15526;SDS011;7865;50.918;4.510;2022-09-09T09:28:02;8.10;;;2.30;;
15526;SDS011;7865;50.918;4.510;2022-09-09T09:38:36;7.45;;;2.22;;
15526;SDS011;7865;50.918;4.510;2022-09-09T09:43:59;6.65;;;2.13;;
15526;SDS011;7865;50.918;4.510;2022-09-09T09:49:03;7.95;;;2.45;;
15526;SDS011;7865;50.918;4.510;2022-09-09T09:59:33;6.97;;;2.55;;
15526;SDS011;7865;50.918;4.510;2022-09-09T10:04:46;14.00;;;2.30;;
15526;SDS011;7865;50.918;4.510;2022-09-09T10:09:51;8.88;;;2.53;;
15526;SDS011;7865;50.918;4.510;2022-09-09T10:25:41;12.43;;;2.42;;
15526;SDS011;7865;50.918;4.510;2022-09-09T10:31:46;8.40;;;2.40;;
15526;SDS011;7865;50.918;4.510;2022-09-09T10:36:49;4.97;;;2.00;;
15526;SDS011;7865;50.918;4.510;2022-09-09T10:57:45;10.30;;;2.50;;
15526;SDS011;7865;50.918;4.510;2022-09-09T11:02:56;9.00;;;2.05;;
15526;SDS011;7865;50.918;4.510;2022-09-09T11:08:04;7.90;;;2.15;;
15526;SDS011;7865;50.918;4.510;2022-09-09T11:13:20;13.95;;;7.65;;
15526;SDS011;7865;50.918;4.510;2022-09-09T11:18:26;4.13;;;1.48;;
15526;SDS011;7865;50.918;4.510;2022-09-09T11:23:40;5.35;;;1.58;;
15526;SDS011;7865;50.918;4.510;2022-09-09T11:39:39;4.45;;;1.73;;
15526;SDS011;7865;50.918;4.510;2022-09-09T11:44:43;3.97;;;1.38;;
15526;SDS011;7865;50.918;4.510;2022-09-09T11:49:45;4.88;;;1.55;;
15526;SDS011;7865;50.918;4.510;2022-09-09T11:54:47;4.43;;;1.33;;
15526;SDS011;7865;50.918;4.510;2022-09-09T11:59:50;4.55;;;1.65;;
15526;SDS011;7865;50.918;4.510;2022-09-09T12:04:57;6.47;;;1.50;;
15526;SDS011;7865;50.918;4.510;2022-09-09T12:15:27;3.90;;;1.23;;
15526;SDS011;7865;50.918;4.510;2022-09-09T12:20:31;8.05;;;1.58;;
15526;SDS011;7865;50.918;4.510;2022-09-09T12:31:18;6.45;;;1.67;;
15526;SDS011;7865;50.918;4.510;2022-09-09T12:36:24;8.65;;;1.50;;
15526;SDS011;7865;50.918;4.510;2022-09-09T12:41:30;5.43;;;1.92;;
15526;SDS011;7865;50.918;4.510;2022-09-09T12:51:46;3.15;;;1.33;;
15526;SDS011;7865;50.918;4.510;2022-09-09T12:56:47;3.55;;;1.40;;
15526;SDS011;7865;50.918;4.510;2022-09-09T13:01:55;3.35;;;1.17;;
15526;SDS011;7865;50.918;4.510;2022-09-09T13:07:09;3.90;;;1.50;;
15526;SDS011;7865;50.918;4.510;2022-09-09T13:12:17;4.43;;;1.65;;
15526;SDS011;7865;50.918;4.510;2022-09-09T13:17:21;3.83;;;0.98;;
15526;SDS011;7865;50.918;4.510;2022-09-09T13:22:35;3.75;;;1.65;;
15526;SDS011;7865;50.918;4.510;2022-09-09T13:27:38;4.85;;;1.20;;
15526;SDS011;7865;50.918;4.510;2022-09-09T13:32:42;3.55;;;1.30;;
15526;SDS011;7865;50.918;4.510;2022-09-09T13:37:43;3.22;;;1.10;;
15526;SDS011;7865;50.918;4.510;2022-09-09T13:42:44;2.55;;;1.30;;
15526;SDS011;7865;50.918;4.510;2022-09-09T13:47:46;5.00;;;1.27;;
15526;SDS011;7865;50.918;4.510;2022-09-09T13:52:54;3.38;;;0.95;;
15526;SDS011;7865;50.918;4.510;2022-09-09T13:57:59;5.15;;;1.13;;
15526;SDS011;7865;50.918;4.510;2022-09-09T14:03:02;1.65;;;0.85;;
15526;SDS011;7865;50.918;4.510;2022-09-09T14:08:04;4.53;;;1.25;;
15526;SDS011;7865;50.918;4.510;2022-09-09T14:13:06;2.63;;;0.95;;
15526;SDS011;7865;50.918;4.510;2022-09-09T14:18:09;3.17;;;1.20;;
15526;SDS011;7865;50.918;4.510;2022-09-09T14:23:13;5.43;;;1.40;;
15526;SDS011;7865;50.918;4.510;2022-09-09T14:28:16;6.38;;;1.25;;
15526;SDS011;7865;50.918;4.510;2022-09-09T14:33:25;2.65;;;1.38;;
15526;SDS011;7865;50.918;4.510;2022-09-09T14:38:33;2.30;;;1.30;;
15526;SDS011;7865;50.918;4.510;2022-09-09T14:43:40;5.15;;;1.50;;
15526;SDS011;7865;50.918;4.510;2022-09-09T14:48:41;5.65;;;1.75;;
15526;SDS011;7865;50.918;4.510;2022-09-09T14:53:44;3.38;;;1.60;;
15526;SDS011;7865;50.918;4.510;2022-09-09T14:58:47;4.93;;;1.20;;
15526;SDS011;7865;50.918;4.510;2022-09-09T15:03:52;4.63;;;1.45;;
15526;SDS011;7865;50.918;4.510;2022-09-09T15:08:55;2.75;;;1.25;;
15526;SDS011;7865;50.918;4.510;2022-09-09T15:14:00;2.78;;;1.23;;
15526;SDS011;7865;50.918;4.510;2022-09-09T15:19:01;3.22;;;1.33;;
15526;SDS011;7865;50.918;4.510;2022-09-09T15:24:04;3.92;;;1.23;;
15526;SDS011;7865;50.918;4.510;2022-09-09T15:29:05;4.70;;;1.60;;
15526;SDS011;7865;50.918;4.510;2022-09-09T15:34:08;2.70;;;1.00;;
15526;SDS011;7865;50.918;4.510;2022-09-09T15:39:10;4.90;;;1.40;;
15526;SDS011;7865;50.918;4.510;2022-09-09T15:44:13;7.03;;;1.35;;
15526;SDS011;7865;50.918;4.510;2022-09-09T15:49:17;4.57;;;1.50;;
15526;SDS011;7865;50.918;4.510;2022-09-09T15:54:20;8.80;;;1.60;;
15526;SDS011;7865;50.918;4.510;2022-09-09T15:59:27;4.30;;;1.90;;
15526;SDS011;7865;50.918;4.510;2022-09-09T16:04:29;4.95;;;1.23;;
15526;SDS011;7865;50.918;4.510;2022-09-09T16:09:31;3.22;;;1.45;;
15526;SDS011;7865;50.918;4.510;2022-09-09T16:14:33;5.90;;;1.50;;
15526;SDS011;7865;50.918;4.510;2022-09-09T16:19:36;3.75;;;1.20;;
15526;SDS011;7865;50.918;4.510;2022-09-09T16:24:37;4.55;;;1.55;;
15526;SDS011;7865;50.918;4.510;2022-09-09T16:29:39;2.92;;;1.63;;
15526;SDS011;7865;50.918;4.510;2022-09-09T16:34:40;3.00;;;1.30;;
15526;SDS011;7865;50.918;4.510;2022-09-09T16:39:43;5.43;;;1.70;;
15526;SDS011;7865;50.918;4.510;2022-09-09T16:44:44;2.53;;;1.30;;
15526;SDS011;7865;50.918;4.510;2022-09-09T16:49:46;3.42;;;1.40;;
15526;SDS011;7865;50.918;4.510;2022-09-09T16:54:47;3.53;;;1.40;;
15526;SDS011;7865;50.918;4.510;2022-09-09T16:59:49;3.20;;;1.63;;
15526;SDS011;7865;50.918;4.510;2022-09-09T17:04:51;1.85;;;1.00;;
15526;SDS011;7865;50.918;4.510;2022-09-09T17:09:52;4.93;;;1.52;;
15526;SDS011;7865;50.918;4.510;2022-09-09T17:14:55;2.78;;;1.10;;
15526;SDS011;7865;50.918;4.510;2022-09-09T17:20:00;3.83;;;1.33;;
15526;SDS011;7865;50.918;4.510;2022-09-09T17:25:03;3.65;;;1.52;;
15526;SDS011;7865;50.918;4.510;2022-09-09T17:30:04;4.80;;;1.63;;
15526;SDS011;7865;50.918;4.510;2022-09-09T17:35:06;6.30;;;1.80;;
15526;SDS011;7865;50.918;4.510;2022-09-09T17:40:07;5.53;;;1.55;;
15526;SDS011;7865;50.918;4.510;2022-09-09T17:45:09;2.15;;;1.38;;
15526;SDS011;7865;50.918;4.510;2022-09-09T17:50:10;5.28;;;1.60;;
15526;SDS011;7865;50.918;4.510;2022-09-09T17:55:13;3.00;;;1.60;;
15526;SDS011;7865;50.918;4.510;2022-09-09T18:00:16;5.75;;;2.00;;
15526;SDS011;7865;50.918;4.510;2022-09-09T18:05:17;2.85;;;1.30;;
15526;SDS011;7865;50.918;4.510;2022-09-09T18:10:19;6.72;;;1.98;;
15526;SDS011;7865;50.918;4.510;2022-09-09T18:15:20;4.32;;;1.70;;
15526;SDS011;7865;50.918;4.510;2022-09-09T18:20:42;5.90;;;1.42;;
15526;SDS011;7865;50.918;4.510;2022-09-09T18:25:45;2.67;;;1.23;;
15526;SDS011;7865;50.918;4.510;2022-09-09T18:30:47;6.22;;;1.45;;
15526;SDS011;7865;50.918;4.510;2022-09-09T18:35:49;7.80;;;1.80;;
15526;SDS011;7865;50.918;4.510;2022-09-09T18:40:50;10.00;;;1.67;;
15526;SDS011;7865;50.918;4.510;2022-09-09T18:46:05;4.70;;;1.50;;
15526;SDS011;7865;50.918;4.510;2022-09-09T18:51:21;4.93;;;1.77;;
15526;SDS011;7865;50.918;4.510;2022-09-09T18:56:26;6.50;;;1.80;;
15526;SDS011;7865;50.918;4.510;2022-09-09T19:01:29;5.25;;;2.15;;
15526;SDS011;7865;50.918;4.510;2022-09-09T19:06:32;3.65;;;1.85;;
15526;SDS011;7865;50.918;4.510;2022-09-09T19:11:36;8.55;;;2.05;;
15526;SDS011;7865;50.918;4.510;2022-09-09T19:16:38;7.53;;;2.25;;
15526;SDS011;7865;50.918;4.510;2022-09-09T19:21:40;9.95;;;2.60;;
15526;SDS011;7865;50.918;4.510;2022-09-09T19:26:43;9.88;;;2.15;;
15526;SDS011;7865;50.918;4.510;2022-09-09T19:31:48;4.40;;;1.67;;
15526;SDS011;7865;50.918;4.510;2022-09-09T19:37:10;8.40;;;2.00;;
15526;SDS011;7865;50.918;4.510;2022-09-09T19:42:16;5.32;;;1.85;;
15526;SDS011;7865;50.918;4.510;2022-09-09T19:47:27;6.70;;;1.80;;
15526;SDS011;7865;50.918;4.510;2022-09-09T19:52:32;8.43;;;2.70;;
15526;SDS011;7865;50.918;4.510;2022-09-09T19:57:41;8.43;;;1.80;;
15526;SDS011;7865;50.918;4.510;2022-09-09T20:02:53;3.75;;;1.70;;
15526;SDS011;7865;50.918;4.510;2022-09-09T20:08:18;5.45;;;1.70;;
15526;SDS011;7865;50.918;4.510;2022-09-09T20:13:19;4.63;;;1.58;;
15526;SDS011;7865;50.918;4.510;2022-09-09T20:18:21;5.10;;;1.40;;
15526;SDS011;7865;50.918;4.510;2022-09-09T20:23:22;6.68;;;1.73;;
15526;SDS011;7865;50.918;4.510;2022-09-09T20:28:23;6.53;;;2.08;;
15526;SDS011;7865;50.918;4.510;2022-09-09T20:33:25;6.38;;;1.80;;
15526;SDS011;7865;50.918;4.510;2022-09-09T20:38:26;3.67;;;2.03;;
15526;SDS011;7865;50.918;4.510;2022-09-09T20:43:28;6.75;;;2.30;;
15526;SDS011;7865;50.918;4.510;2022-09-09T20:48:31;5.57;;;2.55;;
15526;SDS011;7865;50.918;4.510;2022-09-09T20:53:33;10.20;;;2.70;;
15526;SDS011;7865;50.918;4.510;2022-09-09T20:58:35;7.32;;;2.45;;
15526;SDS011;7865;50.918;4.510;2022-09-09T21:03:37;6.43;;;2.70;;
15526;SDS011;7865;50.918;4.510;2022-09-09T21:08:38;7.13;;;2.50;;
15526;SDS011;7865;50.918;4.510;2022-09-09T21:13:40;5.90;;;2.33;;
15526;SDS011;7865;50.918;4.510;2022-09-09T21:18:42;5.82;;;2.38;;
15526;SDS011;7865;50.918;4.510;2022-09-09T21:23:44;4.90;;;2.10;;
15526;SDS011;7865;50.918;4.510;2022-09-09T21:28:45;9.30;;;2.97;;
15526;SDS011;7865;50.918;4.510;2022-09-09T21:33:47;8.63;;;3.20;;
15526;SDS011;7865;50.918;4.510;2022-09-09T21:38:48;7.47;;;2.40;;
15526;SDS011;7865;50.918;4.510;2022-09-09T21:43:51;6.43;;;2.50;;
15526;SDS011;7865;50.918;4.510;2022-09-09T21:48:54;6.57;;;3.10;;
15526;SDS011;7865;50.918;4.510;2022-09-09T21:53:58;8.80;;;3.30;;
15526;SDS011;7865;50.918;4.510;2022-09-09T21:59:00;7.00;;;2.70;;
15526;SDS011;7865;50.918;4.510;2022-09-09T22:04:04;10.47;;;3.37;;
15526;SDS011;7865;50.918;4.510;2022-09-09T22:09:05;7.40;;;2.90;;
15526;SDS011;7865;50.918;4.510;2022-09-09T22:14:06;7.43;;;3.40;;
15526;SDS011;7865;50.918;4.510;2022-09-09T22:19:07;5.83;;;2.90;;
15526;SDS011;7865;50.918;4.510;2022-09-09T22:24:09;9.13;;;3.20;;
15526;SDS011;7865;50.918;4.510;2022-09-09T22:29:11;8.63;;;3.03;;
15526;SDS011;7865;50.918;4.510;2022-09-09T22:34:13;11.07;;;3.20;;
15526;SDS011;7865;50.918;4.510;2022-09-09T22:39:14;7.03;;;3.10;;
15526;SDS011;7865;50.918;4.510;2022-09-09T22:44:15;12.73;;;2.75;;
15526;SDS011;7865;50.918;4.510;2022-09-09T22:49:16;14.50;;;3.58;;
15526;SDS011;7865;50.918;4.510;2022-09-09T22:54:18;10.07;;;3.60;;
15526;SDS011;7865;50.918;4.510;2022-09-09T22:59:21;13.30;;;4.13;;
15526;SDS011;7865;50.918;4.510;2022-09-09T23:04:23;10.35;;;3.38;;
15526;SDS011;7865;50.918;4.510;2022-09-09T23:09:25;10.63;;;3.50;;
15526;SDS011;7865;50.918;4.510;2022-09-09T23:14:26;7.07;;;3.63;;
15526;SDS011;7865;50.918;4.510;2022-09-09T23:19:28;8.70;;;4.10;;
15526;SDS011;7865;50.918;4.510;2022-09-09T23:24:30;13.48;;;4.55;;
15526;SDS011;7865;50.918;4.510;2022-09-09T23:29:31;10.60;;;5.13;;
15526;SDS011;7865;50.918;4.510;2022-09-09T23:34:33;12.13;;;3.60;;
15526;SDS011;7865;50.918;4.510;2022-09-09T23:39:35;10.83;;;3.97;;
15526;SDS011;7865;50.918;4.510;2022-09-09T23:44:37;10.70;;;4.10;;
15526;SDS011;7865;50.918;4.510;2022-09-09T23:49:39;12.87;;;4.47;;
15526;SDS011;7865;50.918;4.510;2022-09-09T23:54:40;10.90;;;4.00;;
15526;SDS011;7865;50.918;4.510;2022-09-09T23:59:41;6.57;;;4.18;;
